Main page
METAR-TAF:

METAR-TAF

Airports :

Røst Airport

Røst, Norway

latitude: 67-31N, longitude: 012-06E, elevation: 4 m

Current weather observation

The report was made 28 minutes ago, at 16:50 UTC
Wind 9 kt from the North/Northwest
Temperature 14°C
Humidity 82%
Pressure 1014 hPa
Visibility 10 km or more
light rain showers,

METAR: ENRS 231650Z AUTO 33009KT 9999 -SHRA OVC016/// 14/11 Q1014

Time: 19:18 (17:18 UTC)

Forecast

The report was made 4 hours and 57 minutes ago, at 12:21 UTC
Forecast valid from 23 at 12 UTC to 23 at 20 UTC
Wind 10 kt from the Northwest
Visibility 10 km or more
Few clouds at a height of 300 ft
Broken clouds at a height of 1800 ft
light rain,

TAF: ENRS 231221Z 2312/2320 32010KT 9999 -RA FEW003 BKN018

Weather observations and forecasts of more than 4000 airports (METAR and TAF reports).

The available stations are represented by yellow and red dots on the map.

Hover mouse over dot to see the name of the station.

Then click to see weather observations and forecasts.

To change the map : click on the green buttons with a black cross to zoom in, on the green button with a dash to zoom out, or on the green arrows for adjacent maps.


METAR-TAF: